sensor_id;sensor_type;location;lat;lon;timestamp;pressure;altitude;pressure_sealevel;temperature;humidity
55456;BME280;63021;52.836;6.376;2023-02-11T00:00:49;103280.47;;;6.81;73.96
55456;BME280;63021;52.836;6.376;2023-02-11T00:03:14;103294.59;;;6.81;74.61
55456;BME280;63021;52.836;6.376;2023-02-11T00:05:40;103304.28;;;6.81;74.68
55456;BME280;63021;52.836;6.376;2023-02-11T00:08:05;103312.22;;;6.81;74.64
55456;BME280;63021;52.836;6.376;2023-02-11T00:10:30;103322.81;;;6.81;74.76
55456;BME280;63021;52.836;6.376;2023-02-11T00:12:56;103327.97;;;6.85;74.69
55456;BME280;63021;52.836;6.376;2023-02-11T00:15:21;103339.34;;;6.87;73.98
55456;BME280;63021;52.836;6.376;2023-02-11T00:17:47;103339.28;;;6.89;73.88
55456;BME280;63021;52.836;6.376;2023-02-11T00:20:12;103317.31;;;6.87;74.59
55456;BME280;63021;52.836;6.376;2023-02-11T00:22:38;103309.38;;;6.87;74.79
55456;BME280;63021;52.836;6.376;2023-02-11T00:25:04;103295.31;;;6.85;74.82
55456;BME280;63021;52.836;6.376;2023-02-11T00:27:29;103281.94;;;6.88;74.58
55456;BME280;63021;52.836;6.376;2023-02-11T00:29:54;103265.25;;;6.86;74.36
55456;BME280;63021;52.836;6.376;2023-02-11T00:32:20;103269.81;;;6.82;74.58
55456;BME280;63021;52.836;6.376;2023-02-11T00:34:45;103273.53;;;6.78;74.88
55456;BME280;63021;52.836;6.376;2023-02-11T00:37:11;103266.56;;;6.75;74.36
55456;BME280;63021;52.836;6.376;2023-02-11T00:39:37;103278.13;;;6.73;74.86
55456;BME280;63021;52.836;6.376;2023-02-11T00:42:03;103288.91;;;6.68;74.87
55456;BME280;63021;52.836;6.376;2023-02-11T00:44:28;103291.72;;;6.64;74.69
55456;BME280;63021;52.836;6.376;2023-02-11T00:46:54;103291.78;;;6.62;74.97
55456;BME280;63021;52.836;6.376;2023-02-11T00:49:19;103307.72;;;6.61;74.41
55456;BME280;63021;52.836;6.376;2023-02-11T00:51:44;103306.94;;;6.58;74.58
55456;BME280;63021;52.836;6.376;2023-02-11T00:54:10;103312.47;;;6.52;75.24
55456;BME280;63021;52.836;6.376;2023-02-11T00:56:35;103318.69;;;6.51;75.18
55456;BME280;63021;52.836;6.376;2023-02-11T00:59:01;103311.78;;;6.47;74.54
55456;BME280;63021;52.836;6.376;2023-02-11T01:01:26;103307.34;;;6.48;74.74
55456;BME280;63021;52.836;6.376;2023-02-11T01:03:51;103302.31;;;6.41;75.16
55456;BME280;63021;52.836;6.376;2023-02-11T01:06:17;103290.88;;;6.41;74.51
55456;BME280;63021;52.836;6.376;2023-02-11T01:08:43;103293.56;;;6.39;75.33
55456;BME280;63021;52.836;6.376;2023-02-11T01:11:18;103294.56;;;6.37;75.55
55456;BME280;63021;52.836;6.376;2023-02-11T01:13:46;103285.91;;;6.32;75.51
55456;BME280;63021;52.836;6.376;2023-02-11T01:16:11;103284.41;;;6.24;75.02
55456;BME280;63021;52.836;6.376;2023-02-11T01:18:37;103285.38;;;6.23;75.05
55456;BME280;63021;52.836;6.376;2023-02-11T01:21:03;103287.13;;;6.23;75.56
55456;BME280;63021;52.836;6.376;2023-02-11T01:23:29;103281.97;;;6.20;75.75
55456;BME280;63021;52.836;6.376;2023-02-11T01:25:55;103295.19;;;6.20;75.19
55456;BME280;63021;52.836;6.376;2023-02-11T01:28:23;103300.53;;;6.18;75.82
55456;BME280;63021;52.836;6.376;2023-02-11T01:30:49;103305.88;;;6.17;76.15
55456;BME280;63021;52.836;6.376;2023-02-11T01:33:14;103300.53;;;6.18;76.21
55456;BME280;63021;52.836;6.376;2023-02-11T01:35:40;103290.06;;;6.15;75.52
55456;BME280;63021;52.836;6.376;2023-02-11T01:38:18;103296.09;;;6.19;75.60
55456;BME280;63021;52.836;6.376;2023-02-11T01:43:17;103289.97;;;6.18;76.28
55456;BME280;63021;52.836;6.376;2023-02-11T01:45:51;103292.66;;;6.17;76.35
55456;BME280;63021;52.836;6.376;2023-02-11T01:48:21;103277.69;;;6.16;76.41
55456;BME280;63021;52.836;6.376;2023-02-11T01:50:52;103283.91;;;6.15;76.38
55456;BME280;63021;52.836;6.376;2023-02-11T01:53:19;103274.28;;;6.14;75.96
55456;BME280;63021;52.836;6.376;2023-02-11T01:56:04;103284.84;;;6.14;76.08
55456;BME280;63021;52.836;6.376;2023-02-11T01:58:50;103272.53;;;6.13;76.13
55456;BME280;63021;52.836;6.376;2023-02-11T02:01:22;103275.94;;;6.16;77.05
55456;BME280;63021;52.836;6.376;2023-02-11T02:03:51;103274.22;;;6.15;77.29
55456;BME280;63021;52.836;6.376;2023-02-11T02:06:23;103269.81;;;6.14;76.90
55456;BME280;63021;52.836;6.376;2023-02-11T02:09:02;103282.75;;;6.22;77.31
55456;BME280;63021;52.836;6.376;2023-02-11T02:11:29;103280.94;;;6.24;77.57
55456;BME280;63021;52.836;6.376;2023-02-11T02:13:55;103271.13;;;6.26;77.30
55456;BME280;63021;52.836;6.376;2023-02-11T02:16:21;103275.38;;;6.30;76.94
55456;BME280;63021;52.836;6.376;2023-02-11T02:29:56;103248.47;;;6.43;77.69
55456;BME280;63021;52.836;6.376;2023-02-11T02:32:48;103245.75;;;6.44;76.91
55456;BME280;63021;52.836;6.376;2023-02-11T02:35:34;103240.41;;;6.46;77.60
55456;BME280;63021;52.836;6.376;2023-02-11T02:38:09;103234.19;;;6.47;77.56
55456;BME280;63021;52.836;6.376;2023-02-11T02:43:09;103227.97;;;6.48;77.55
55456;BME280;63021;52.836;6.376;2023-02-11T02:45:35;103226.34;;;6.44;77.74
55456;BME280;63021;52.836;6.376;2023-02-11T02:48:00;103221.03;;;6.45;77.65
55456;BME280;63021;52.836;6.376;2023-02-11T02:50:29;103227.88;;;6.51;77.69
55456;BME280;63021;52.836;6.376;2023-02-11T02:53:25;103228.66;;;6.53;78.26
55456;BME280;63021;52.836;6.376;2023-02-11T02:56:12;103241.81;;;6.54;77.15
55456;BME280;63021;52.836;6.376;2023-02-11T02:59:17;103238.31;;;6.54;78.15
55456;BME280;63021;52.836;6.376;2023-02-11T03:05:12;103226.78;;;6.55;77.64
55456;BME280;63021;52.836;6.376;2023-02-11T03:07:47;103232.78;;;6.60;77.65
55456;BME280;63021;52.836;6.376;2023-02-11T03:10:42;103235.34;;;6.62;77.69
55456;BME280;63021;52.836;6.376;2023-02-11T03:13:08;103240.59;;;6.63;77.76
55456;BME280;63021;52.836;6.376;2023-02-11T03:15:38;103222.13;;;6.62;78.44
55456;BME280;63021;52.836;6.376;2023-02-11T03:18:08;103217.59;;;6.65;78.21
55456;BME280;63021;52.836;6.376;2023-02-11T03:20:37;103218.38;;;6.67;78.35
55456;BME280;63021;52.836;6.376;2023-02-11T03:23:18;103210.56;;;6.64;77.93
55456;BME280;63021;52.836;6.376;2023-02-11T03:26:20;103214.75;;;6.70;78.48
55456;BME280;63021;52.836;6.376;2023-02-11T03:31:31;103217.19;;;6.74;77.86
55456;BME280;63021;52.836;6.376;2023-02-11T03:34:05;103205.06;;;6.69;77.85
55456;BME280;63021;52.836;6.376;2023-02-11T03:36:48;103210.97;;;6.75;77.65
55456;BME280;63021;52.836;6.376;2023-02-11T03:39:20;103220.63;;;6.76;78.78
55456;BME280;63021;52.836;6.376;2023-02-11T03:41:48;103220.59;;;6.78;78.31
55456;BME280;63021;52.836;6.376;2023-02-11T03:44:15;103225.00;;;6.78;78.64
55456;BME280;63021;52.836;6.376;2023-02-11T03:46:43;103217.19;;;6.74;77.77
55456;BME280;63021;52.836;6.376;2023-02-11T03:49:13;103218.78;;;6.79;78.53
55456;BME280;63021;52.836;6.376;2023-02-11T03:51:40;103215.38;;;6.75;78.42
55456;BME280;63021;52.836;6.376;2023-02-11T03:54:10;103214.41;;;6.78;78.79
55456;BME280;63021;52.836;6.376;2023-02-11T03:56:44;103214.28;;;6.81;78.21
55456;BME280;63021;52.836;6.376;2023-02-11T03:59:13;103199.41;;;6.78;78.04
55456;BME280;63021;52.836;6.376;2023-02-11T04:01:38;103209.03;;;6.79;78.73
55456;BME280;63021;52.836;6.376;2023-02-11T04:04:04;103217.00;;;6.79;78.72
55456;BME280;63021;52.836;6.376;2023-02-11T04:06:29;103207.28;;;6.80;78.14
55456;BME280;63021;52.836;6.376;2023-02-11T04:08:54;103195.88;;;6.78;78.78
55456;BME280;63021;52.836;6.376;2023-02-11T04:11:20;103199.41;;;6.78;78.90
55456;BME280;63021;52.836;6.376;2023-02-11T04:13:46;103202.16;;;6.75;78.39
55456;BME280;63021;52.836;6.376;2023-02-11T04:16:11;103215.38;;;6.75;78.38
55456;BME280;63021;52.836;6.376;2023-02-11T04:18:37;103212.81;;;6.73;78.41
55456;BME280;63021;52.836;6.376;2023-02-11T04:21:02;103200.69;;;6.68;78.29
55456;BME280;63021;52.836;6.376;2023-02-11T04:23:28;103218.31;;;6.69;78.80
55456;BME280;63021;52.836;6.376;2023-02-11T04:25:53;103227.84;;;6.73;79.20
55456;BME280;63021;52.836;6.376;2023-02-11T04:28:18;103221.88;;;6.68;78.97
55456;BME280;63021;52.836;6.376;2023-02-11T04:30:44;103224.34;;;6.72;78.49
55456;BME280;63021;52.836;6.376;2023-02-11T04:33:09;103229.56;;;6.74;78.63
55456;BME280;63021;52.836;6.376;2023-02-11T04:35:34;103224.38;;;6.71;79.48
55456;BME280;63021;52.836;6.376;2023-02-11T04:38:00;103214.06;;;6.65;78.70
55456;BME280;63021;52.836;6.376;2023-02-11T04:40:25;103227.97;;;6.70;79.08
55456;BME280;63021;52.836;6.376;2023-02-11T04:42:50;103224.50;;;6.68;78.58
55456;BME280;63021;52.836;6.376;2023-02-11T04:45:16;103224.44;;;6.69;78.99
55456;BME280;63021;52.836;6.376;2023-02-11T04:47:41;103232.50;;;6.66;79.22
55456;BME280;63021;52.836;6.376;2023-02-11T04:50:07;103235.16;;;6.66;79.14
55456;BME280;63021;52.836;6.376;2023-02-11T04:52:32;103227.22;;;6.66;78.87
55456;BME280;63021;52.836;6.376;2023-02-11T04:54:58;103216.03;;;6.59;78.51
55456;BME280;63021;52.836;6.376;2023-02-11T04:57:23;103236.13;;;6.64;78.91
55456;BME280;63021;52.836;6.376;2023-02-11T04:59:48;103230.84;;;6.64;78.96
55456;BME280;63021;52.836;6.376;2023-02-11T05:02:14;103228.19;;;6.64;78.71
55456;BME280;63021;52.836;6.376;2023-02-11T05:04:39;103219.66;;;6.57;79.14
55456;BME280;63021;52.836;6.376;2023-02-11T05:07:04;103224.78;;;6.62;79.44
55456;BME280;63021;52.836;6.376;2023-02-11T05:09:30;103225.75;;;6.59;79.43
55456;BME280;63021;52.836;6.376;2023-02-11T05:11:55;103229.22;;;6.61;79.52
55456;BME280;63021;52.836;6.376;2023-02-11T05:14:21;103229.38;;;6.56;79.48
55456;BME280;63021;52.836;6.376;2023-02-11T05:16:46;103230.97;;;6.61;79.54
55456;BME280;63021;52.836;6.376;2023-02-11T05:19:11;103228.47;;;6.57;79.23
55456;BME280;63021;52.836;6.376;2023-02-11T05:21:37;103238.06;;;6.60;79.38
55456;BME280;63021;52.836;6.376;2023-02-11T05:24:02;103227.59;;;6.57;79.65
55456;BME280;63021;52.836;6.376;2023-02-11T05:26:28;103227.66;;;6.55;79.23
55456;BME280;63021;52.836;6.376;2023-02-11T05:28:53;103238.91;;;6.61;79.74
55456;BME280;63021;52.836;6.376;2023-02-11T05:31:19;103236.22;;;6.62;79.30
55456;BME280;63021;52.836;6.376;2023-02-11T05:33:44;103232.00;;;6.58;79.46
55456;BME280;63021;52.836;6.376;2023-02-11T05:36:11;103236.22;;;6.62;79.23
55456;BME280;63021;52.836;6.376;2023-02-11T05:38:37;103226.50;;;6.63;79.48
55456;BME280;63021;52.836;6.376;2023-02-11T05:41:04;103225.63;;;6.62;79.22
55456;BME280;63021;52.836;6.376;2023-02-11T05:43:30;103232.78;;;6.60;79.91
55456;BME280;63021;52.836;6.376;2023-02-11T05:45:55;103230.84;;;6.64;80.32
55456;BME280;63021;52.836;6.376;2023-02-11T05:48:21;103242.19;;;6.67;80.03
55456;BME280;63021;52.836;6.376;2023-02-11T05:50:46;103240.38;;;6.68;79.68
55456;BME280;63021;52.836;6.376;2023-02-11T05:53:15;103243.97;;;6.67;79.80
55456;BME280;63021;52.836;6.376;2023-02-11T05:55:40;103235.97;;;6.68;80.17
55456;BME280;63021;52.836;6.376;2023-02-11T05:58:06;103242.13;;;6.69;79.75
55456;BME280;63021;52.836;6.376;2023-02-11T06:00:33;103237.63;;;6.71;79.96
55456;BME280;63021;52.836;6.376;2023-02-11T06:02:58;103235.78;;;6.73;80.19
55456;BME280;63021;52.836;6.376;2023-02-11T06:05:24;103237.44;;;6.75;80.31
55456;BME280;63021;52.836;6.376;2023-02-11T06:07:49;103232.16;;;6.75;79.80
55456;BME280;63021;52.836;6.376;2023-02-11T06:10:15;103230.41;;;6.74;80.44
55456;BME280;63021;52.836;6.376;2023-02-11T06:12:40;103226.72;;;6.79;80.48
55456;BME280;63021;52.836;6.376;2023-02-11T06:15:06;103234.66;;;6.79;79.54
55456;BME280;63021;52.836;6.376;2023-02-11T06:17:31;103237.38;;;6.77;80.47
55456;BME280;63021;52.836;6.376;2023-02-11T06:19:59;103244.34;;;6.80;80.29
55456;BME280;63021;52.836;6.376;2023-02-11T06:22:25;103241.75;;;6.78;80.53
55456;BME280;63021;52.836;6.376;2023-02-11T06:24:51;103233.97;;;6.73;80.22
55456;BME280;63021;52.836;6.376;2023-02-11T06:27:16;103230.41;;;6.74;80.26
55456;BME280;63021;52.836;6.376;2023-02-11T06:29:43;103240.81;;;6.79;79.87
55456;BME280;63021;52.836;6.376;2023-02-11T06:32:09;103240.75;;;6.81;80.43
55456;BME280;63021;52.836;6.376;2023-02-11T06:34:34;103239.84;;;6.82;80.46
55456;BME280;63021;52.836;6.376;2023-02-11T06:36:59;103226.53;;;6.83;81.03
55456;BME280;63021;52.836;6.376;2023-02-11T06:39:26;103230.97;;;6.83;80.39
55456;BME280;63021;52.836;6.376;2023-02-11T06:41:51;103223.16;;;6.80;80.11
55456;BME280;63021;52.836;6.376;2023-02-11T06:44:17;103211.75;;;6.78;81.01
55456;BME280;63021;52.836;6.376;2023-02-11T06:46:42;103228.25;;;6.84;80.34
55456;BME280;63021;52.836;6.376;2023-02-11T06:49:08;103217.94;;;6.78;80.51
55456;BME280;63021;52.836;6.376;2023-02-11T06:51:33;103227.34;;;6.85;81.05
55456;BME280;63021;52.836;6.376;2023-02-11T06:53:58;103229.94;;;6.87;80.84
55456;BME280;63021;52.836;6.376;2023-02-11T06:56:25;103237.88;;;6.87;80.87
55456;BME280;63021;52.836;6.376;2023-02-11T06:58:53;103249.31;;;6.87;80.60
55456;BME280;63021;52.836;6.376;2023-02-11T07:01:22;103242.22;;;6.88;80.61
55456;BME280;63021;52.836;6.376;2023-02-11T07:03:49;103247.38;;;6.91;80.57
55456;BME280;63021;52.836;6.376;2023-02-11T07:06:18;103244.69;;;6.92;81.03
55456;BME280;63021;52.836;6.376;2023-02-11T07:08:44;103227.94;;;6.92;80.27
55456;BME280;63021;52.836;6.376;2023-02-11T07:11:15;103232.50;;;6.88;81.11
55456;BME280;63021;52.836;6.376;2023-02-11T07:13:41;103238.53;;;6.92;80.19
55456;BME280;63021;52.836;6.376;2023-02-11T07:16:09;103234.97;;;6.93;81.18
55456;BME280;63021;52.836;6.376;2023-02-11T07:18:35;103231.47;;;6.92;80.78
55456;BME280;63021;52.836;6.376;2023-02-11T07:21:05;103239.34;;;6.94;80.81
55456;BME280;63021;52.836;6.376;2023-02-11T07:23:32;103240.19;;;6.94;81.03
55456;BME280;63021;52.836;6.376;2023-02-11T07:26:01;103246.19;;;6.98;80.89
55456;BME280;63021;52.836;6.376;2023-02-11T07:28:27;103246.28;;;6.97;80.82
55456;BME280;63021;52.836;6.376;2023-02-11T07:30:52;103246.19;;;6.98;81.06
55456;BME280;63021;52.836;6.376;2023-02-11T07:33:18;103245.47;;;6.94;81.05
55456;BME280;63021;52.836;6.376;2023-02-11T07:35:43;103245.41;;;6.96;81.04
55456;BME280;63021;52.836;6.376;2023-02-11T07:38:08;103240.00;;;6.99;81.11
55456;BME280;63021;52.836;6.376;2023-02-11T07:40:35;103227.22;;;6.88;80.93
55456;BME280;63021;52.836;6.376;2023-02-11T07:43:00;103259.22;;;7.04;80.93
55456;BME280;63021;52.836;6.376;2023-02-11T07:45:27;103262.72;;;7.05;81.66
55456;BME280;63021;52.836;6.376;2023-02-11T07:47:52;103258.47;;;7.01;81.20
55456;BME280;63021;52.836;6.376;2023-02-11T07:50:17;103263.63;;;7.04;81.57
55456;BME280;63021;52.836;6.376;2023-02-11T07:52:43;103269.59;;;7.09;81.21
55456;BME280;63021;52.836;6.376;2023-02-11T07:55:08;103262.56;;;7.08;80.81
55456;BME280;63021;52.836;6.376;2023-02-11T07:57:34;103266.81;;;7.12;80.67
55456;BME280;63021;52.836;6.376;2023-02-11T07:59:59;103267.69;;;7.13;80.95
55456;BME280;63021;52.836;6.376;2023-02-11T08:02:25;103260.75;;;7.10;81.28
55456;BME280;63021;52.836;6.376;2023-02-11T08:04:50;103269.47;;;7.12;80.87
55456;BME280;63021;52.836;6.376;2023-02-11T08:07:16;103261.47;;;7.14;81.59
55456;BME280;63021;52.836;6.376;2023-02-11T08:09:42;103258.81;;;7.14;81.58
55456;BME280;63021;52.836;6.376;2023-02-11T08:12:08;103270.16;;;7.17;81.59
55456;BME280;63021;52.836;6.376;2023-02-11T08:14:33;103271.00;;;7.18;81.21
55456;BME280;63021;52.836;6.376;2023-02-11T08:16:59;103267.44;;;7.19;80.61
55456;BME280;63021;52.836;6.376;2023-02-11T08:19:24;103263.88;;;7.20;81.43
55456;BME280;63021;52.836;6.376;2023-02-11T08:21:49;103273.38;;;7.24;81.58
55456;BME280;63021;52.836;6.376;2023-02-11T08:24:19;103278.56;;;7.27;81.00
55456;BME280;63021;52.836;6.376;2023-02-11T08:26:44;103291.81;;;7.27;80.93
55456;BME280;63021;52.836;6.376;2023-02-11T08:29:13;103295.19;;;7.31;81.62
55456;BME280;63021;52.836;6.376;2023-02-11T08:31:41;103299.56;;;7.32;80.92
55456;BME280;63021;52.836;6.376;2023-02-11T08:34:07;103306.59;;;7.33;80.82
55456;BME280;63021;52.836;6.376;2023-02-11T08:36:36;103305.72;;;7.32;81.46
55456;BME280;63021;52.836;6.376;2023-02-11T08:39:08;103309.97;;;7.36;80.76
55456;BME280;63021;52.836;6.376;2023-02-11T08:41:36;103311.63;;;7.39;81.05
55456;BME280;63021;52.836;6.376;2023-02-11T08:44:01;103309.81;;;7.39;81.35
55456;BME280;63021;52.836;6.376;2023-02-11T08:46:27;103313.22;;;7.43;80.49
55456;BME280;63021;52.836;6.376;2023-02-11T08:48:52;103325.47;;;7.45;80.98
55456;BME280;63021;52.836;6.376;2023-02-11T08:51:20;103321.88;;;7.46;80.91
55456;BME280;63021;52.836;6.376;2023-02-11T08:53:47;103313.22;;;7.43;81.13
55456;BME280;63021;52.836;6.376;2023-02-11T08:56:14;103326.28;;;7.48;80.88
55456;BME280;63021;52.836;6.376;2023-02-11T08:58:40;103328.00;;;7.49;80.92
55456;BME280;63021;52.836;6.376;2023-02-11T09:01:10;103319.25;;;7.46;80.56
55456;BME280;63021;52.836;6.376;2023-02-11T09:03:36;103329.72;;;7.50;81.23
55456;BME280;63021;52.836;6.376;2023-02-11T09:06:04;103337.53;;;7.53;81.11
55456;BME280;63021;52.836;6.376;2023-02-11T09:08:30;103336.47;;;7.57;80.64
55456;BME280;63021;52.836;6.376;2023-02-11T09:10:56;103338.97;;;7.60;80.62
55456;BME280;63021;52.836;6.376;2023-02-11T09:13:21;103331.00;;;7.61;80.64
55456;BME280;63021;52.836;6.376;2023-02-11T09:15:47;103330.78;;;7.66;80.26
55456;BME280;63021;52.836;6.376;2023-02-11T09:18:12;103336.72;;;7.71;80.67
55456;BME280;63021;52.836;6.376;2023-02-11T09:20:38;103338.31;;;7.75;80.92
55456;BME280;63021;52.836;6.376;2023-02-11T09:23:03;103332.78;;;7.82;80.42
55456;BME280;63021;52.836;6.376;2023-02-11T09:25:29;103330.84;;;7.85;80.61
55456;BME280;63021;52.836;6.376;2023-02-11T09:27:54;103336.59;;;7.95;80.38
55456;BME280;63021;52.836;6.376;2023-02-11T09:30:20;103347.75;;;8.03;80.17
55456;BME280;63021;52.836;6.376;2023-02-11T09:32:45;103358.06;;;8.09;80.83
55456;BME280;63021;52.836;6.376;2023-02-11T09:35:11;103360.66;;;8.11;80.35
55456;BME280;63021;52.836;6.376;2023-02-11T09:37:36;103358.69;;;8.14;80.30
55456;BME280;63021;52.836;6.376;2023-02-11T09:40:02;103367.41;;;8.18;80.30
55456;BME280;63021;52.836;6.376;2023-02-11T09:43:03;103373.44;;;8.22;80.51
55456;BME280;63021;52.836;6.376;2023-02-11T09:45:33;103389.28;;;8.23;80.24
55456;BME280;63021;52.836;6.376;2023-02-11T09:48:03;103394.47;;;8.26;79.56
55456;BME280;63021;52.836;6.376;2023-02-11T09:50:33;103395.31;;;8.27;79.35
55456;BME280;63021;52.836;6.376;2023-02-11T09:53:14;103394.31;;;8.29;80.13
55456;BME280;63021;52.836;6.376;2023-02-11T09:55:45;103404.00;;;8.30;79.22
55456;BME280;63021;52.836;6.376;2023-02-11T09:58:15;103403.06;;;8.31;79.58
55456;BME280;63021;52.836;6.376;2023-02-11T10:00:51;103402.97;;;8.33;79.42
55456;BME280;63021;52.836;6.376;2023-02-11T10:20:37;103423.03;;;8.61;79.25
55456;BME280;63021;52.836;6.376;2023-02-11T10:23:12;103429.91;;;8.65;78.33
55456;BME280;63021;52.836;6.376;2023-02-11T10:25:43;103430.69;;;8.67;79.07
55456;BME280;63021;52.836;6.376;2023-02-11T10:28:19;103445.47;;;8.73;78.93
55456;BME280;63021;52.836;6.376;2023-02-11T10:31:10;103445.25;;;8.77;78.46
55456;BME280;63021;52.836;6.376;2023-02-11T10:33:46;103442.47;;;8.80;78.48
55456;BME280;63021;52.836;6.376;2023-02-11T10:36:15;103448.66;;;8.81;78.32
55456;BME280;63021;52.836;6.376;2023-02-11T10:38:42;103440.53;;;8.84;78.62
55456;BME280;63021;52.836;6.376;2023-02-11T10:41:11;103443.97;;;8.86;77.89
55456;BME280;63021;52.836;6.376;2023-02-11T10:44:01;103444.69;;;8.90;78.14
55456;BME280;63021;52.836;6.376;2023-02-11T10:46:32;103443.13;;;8.86;77.95
55456;BME280;63021;52.836;6.376;2023-02-11T10:49:00;103454.25;;;8.94;77.92
55456;BME280;63021;52.836;6.376;2023-02-11T10:51:31;103444.63;;;8.91;77.70
55456;BME280;63021;52.836;6.376;2023-02-11T10:56:58;103451.31;;;9.00;77.41
55456;BME280;63021;52.836;6.376;2023-02-11T10:59:32;103450.22;;;9.04;77.72
55456;BME280;63021;52.836;6.376;2023-02-11T11:02:20;103428.16;;;9.02;77.58
55456;BME280;63021;52.836;6.376;2023-02-11T11:04:47;103449.00;;;9.11;77.59
55456;BME280;63021;52.836;6.376;2023-02-11T11:07:25;103447.94;;;9.15;77.14
55456;BME280;63021;52.836;6.376;2023-02-11T11:09:55;103449.50;;;9.19;77.31
55456;BME280;63021;52.836;6.376;2023-02-11T11:14:54;103450.19;;;9.23;77.24
55456;BME280;63021;52.836;6.376;2023-02-11T11:17:19;103454.50;;;9.26;76.92
55456;BME280;63021;52.836;6.376;2023-02-11T11:19:45;103446.47;;;9.27;76.39
55456;BME280;63021;52.836;6.376;2023-02-11T11:22:19;103453.34;;;9.31;76.92
55456;BME280;63021;52.836;6.376;2023-02-11T11:24:45;103456.78;;;9.33;77.12
55456;BME280;63021;52.836;6.376;2023-02-11T11:27:18;103446.16;;;9.33;76.96
55456;BME280;63021;52.836;6.376;2023-02-11T11:29:48;103454.84;;;9.37;76.11
55456;BME280;63021;52.836;6.376;2023-02-11T11:34:59;103457.13;;;9.45;76.57
55456;BME280;63021;52.836;6.376;2023-02-11T11:37:32;103456.28;;;9.44;75.96
55456;BME280;63021;52.836;6.376;2023-02-11T11:42:30;103463.09;;;9.50;75.95
55456;BME280;63021;52.836;6.376;2023-02-11T11:47:47;103453.47;;;9.47;75.03
55456;BME280;63021;52.836;6.376;2023-02-11T11:50:31;103466.59;;;9.50;75.86
55456;BME280;63021;52.836;6.376;2023-02-11T11:56:04;103461.13;;;9.53;75.16
55456;BME280;63021;52.836;6.376;2023-02-11T11:58:32;103468.09;;;9.56;75.83
55456;BME280;63021;52.836;6.376;2023-02-11T12:10:14;103471.78;;;9.71;75.33
55456;BME280;63021;52.836;6.376;2023-02-11T12:18:18;103468.69;;;9.80;75.49
55456;BME280;63021;52.836;6.376;2023-02-11T12:23:57;103465.88;;;9.83;74.90
55456;BME280;63021;52.836;6.376;2023-02-11T12:26:35;103461.38;;;9.84;74.49
55456;BME280;63021;52.836;6.376;2023-02-11T12:29:21;103463.38;;;9.80;74.73
55456;BME280;63021;52.836;6.376;2023-02-11T12:34:44;103459.84;;;9.80;74.40
55456;BME280;63021;52.836;6.376;2023-02-11T12:42:53;103458.97;;;9.79;74.55
55456;BME280;63021;52.836;6.376;2023-02-11T12:46:07;103451.56;;;9.86;74.31
55456;BME280;63021;52.836;6.376;2023-02-11T12:48:49;103443.41;;;9.89;74.13
55456;BME280;63021;52.836;6.376;2023-02-11T12:56:52;103450.38;;;9.92;74.09
55456;BME280;63021;52.836;6.376;2023-02-11T13:00:03;103450.13;;;9.96;73.21
55456;BME280;63021;52.836;6.376;2023-02-11T13:02:50;103458.03;;;9.98;73.80
55456;BME280;63021;52.836;6.376;2023-02-11T13:05:41;103462.09;;;10.05;74.07
55456;BME280;63021;52.836;6.376;2023-02-11T13:08:29;103466.09;;;10.14;74.00
55456;BME280;63021;52.836;6.376;2023-02-11T13:11:06;103457.09;;;10.16;74.07
55456;BME280;63021;52.836;6.376;2023-02-11T13:16:29;103454.91;;;10.25;73.68
55456;BME280;63021;52.836;6.376;2023-02-11T13:19:13;103456.69;;;10.24;73.13
55456;BME280;63021;52.836;6.376;2023-02-11T13:30:07;103450.00;;;10.33;72.57
55456;BME280;63021;52.836;6.376;2023-02-11T13:35:35;103454.19;;;10.38;72.87
55456;BME280;63021;52.836;6.376;2023-02-11T13:38:22;103451.44;;;10.40;72.51
55456;BME280;63021;52.836;6.376;2023-02-11T13:41:16;103449.66;;;10.40;72.24
55456;BME280;63021;52.836;6.376;2023-02-11T13:43:42;103454.09;;;10.40;72.54
55456;BME280;63021;52.836;6.376;2023-02-11T13:46:10;103455.81;;;10.41;72.69
55456;BME280;63021;52.836;6.376;2023-02-11T13:48:38;103447.66;;;10.44;72.04
55456;BME280;63021;52.836;6.376;2023-02-11T13:51:12;103447.66;;;10.44;72.14
55456;BME280;63021;52.836;6.376;2023-02-11T13:53:51;103446.19;;;10.38;72.52
55456;BME280;63021;52.836;6.376;2023-02-11T13:56:31;103457.38;;;10.45;72.41
55456;BME280;63021;52.836;6.376;2023-02-11T13:58:58;103462.72;;;10.45;72.60
55456;BME280;63021;52.836;6.376;2023-02-11T14:04:34;103458.09;;;10.49;71.97
55456;BME280;63021;52.836;6.376;2023-02-11T14:07:32;103453.63;;;10.49;72.24
55456;BME280;63021;52.836;6.376;2023-02-11T14:13:23;103448.47;;;10.46;72.05
55456;BME280;63021;52.836;6.376;2023-02-11T14:23:40;103468.53;;;10.36;71.48
55456;BME280;63021;52.836;6.376;2023-02-11T14:31:21;103468.72;;;10.31;71.88
55456;BME280;63021;52.836;6.376;2023-02-11T14:39:57;103469.13;;;10.23;71.92
55456;BME280;63021;52.836;6.376;2023-02-11T14:42:28;103472.72;;;10.22;71.65
55456;BME280;63021;52.836;6.376;2023-02-11T14:44:57;103478.22;;;10.19;71.75
55456;BME280;63021;52.836;6.376;2023-02-11T14:47:53;103481.72;;;10.20;71.72
55456;BME280;63021;52.836;6.376;2023-02-11T14:50:42;103493.44;;;10.17;71.49
55456;BME280;63021;52.836;6.376;2023-02-11T14:53:19;103488.25;;;10.14;71.35
55456;BME280;63021;52.836;6.376;2023-02-11T14:55:48;103481.22;;;10.13;72.32
55456;BME280;63021;52.836;6.376;2023-02-11T14:58:20;103482.06;;;10.14;71.82
55456;BME280;63021;52.836;6.376;2023-02-11T15:00:52;103482.84;;;10.16;71.92
55456;BME280;63021;52.836;6.376;2023-02-11T15:03:29;103474.97;;;10.14;71.85
55456;BME280;63021;52.836;6.376;2023-02-11T15:06:35;103482.13;;;10.12;71.44
55456;BME280;63021;52.836;6.376;2023-02-11T15:08:54;103487.72;;;10.08;71.65
55456;BME280;63021;52.836;6.376;2023-02-11T15:11:23;103491.38;;;10.05;71.78
55456;BME280;63021;52.836;6.376;2023-02-11T15:13:50;103482.84;;;9.98;71.77
55456;BME280;63021;52.836;6.376;2023-02-11T15:16:18;103494.28;;;10.00;71.38
55456;BME280;63021;52.836;6.376;2023-02-11T15:18:50;103499.84;;;9.96;71.69
55456;BME280;63021;52.836;6.376;2023-02-11T15:21:25;103504.38;;;9.94;71.68